White Pigeon, Michigan
Current Conditions -  °F | °C
As of 2:35 PM on Thursday 30 Oct 2014 (Local Time) from KIRS Reporting Station
Overcast Overcast  
Wind Chill: 46°   Ceiling: 4200
Heat Index: 48°   Visibility: 10mi
Dew Point: 36°   Wind: 6mph
Humidity: 62%   Direction: 250°WSW
Pressure: 30.08"   Gusts: NA
Location:  41.8°N, 85.64°W
Report Text: KIRS 301835Z AUTO 25005KT 10SM OVC042 09/02 A3008 RMK AO2
Loading
Personal Weather Stations






























Interactive Weather Map
Tropical Storm Tracking
New forecast layout! Learn more

10-Day Weather Forecast

Advertisements
Track Severe Weather on mobile